createdAt,value
2022-11-28T00:00:47.529Z,97252.19
2022-11-28T00:03:18.210Z,97240.94
2022-11-28T00:05:47.139Z,97244.25
2022-11-28T00:08:13.985Z,97248.38
2022-11-28T00:10:40.980Z,97237.00
2022-11-28T00:13:07.565Z,97238.56
2022-11-28T00:15:33.984Z,97240.63
2022-11-28T00:18:00.441Z,97234.34
2022-11-28T00:20:26.852Z,97241.00
2022-11-28T00:22:53.288Z,97227.16
2022-11-28T00:25:20.938Z,97225.88
2022-11-28T00:27:47.366Z,97230.84
2022-11-28T00:30:13.771Z,97226.47
2022-11-28T00:32:40.209Z,97220.28
2022-11-28T00:35:06.940Z,97212.59
2022-11-28T00:37:34.688Z,97210.66
2022-11-28T00:40:01.164Z,97214.03
2022-11-28T00:42:27.844Z,97211.78
2022-11-28T00:44:54.256Z,97211.22
2022-11-28T00:47:20.767Z,97213.13
2022-11-28T00:49:47.176Z,97217.53
2022-11-28T00:52:13.608Z,97216.25
2022-11-28T00:54:40.451Z,97220.50
2022-11-28T00:57:07.167Z,97225.78
2022-11-28T00:59:33.787Z,97224.59
2022-11-28T01:02:00.339Z,97222.69
2022-11-28T01:04:27.868Z,97220.03
2022-11-28T01:06:54.438Z,97221.59
2022-11-28T01:09:21.374Z,97214.47
2022-11-28T01:11:49.364Z,97208.09
2022-11-28T01:14:15.923Z,97206.84
2022-11-28T01:16:42.480Z,97207.31
2022-11-28T01:19:09.140Z,97197.78
2022-11-28T01:21:35.526Z,97196.03
2022-11-28T01:24:02.088Z,97193.38
2022-11-28T01:26:28.832Z,97187.63
2022-11-28T01:28:55.336Z,97183.44
2022-11-28T01:31:22.619Z,97176.63
2022-11-28T01:33:49.402Z,97170.63
2022-11-28T01:36:15.909Z,97169.50
2022-11-28T01:38:42.520Z,97167.75
2022-11-28T01:41:09.103Z,97164.31
2022-11-28T01:43:35.680Z,97164.13
2022-11-28T01:46:02.298Z,97158.16
2022-11-28T01:48:38.515Z,97152.94
2022-11-28T01:51:05.926Z,97146.91
2022-11-28T01:53:32.863Z,97130.53
2022-11-28T01:56:03.742Z,97132.47
2022-11-28T01:58:30.361Z,97129.34
2022-11-28T02:00:57.008Z,97130.16
2022-11-28T02:03:28.072Z,97124.97
2022-11-28T02:05:54.603Z,97117.56
2022-11-28T02:08:21.158Z,97125.50
2022-11-28T02:11:17.241Z,97116.09
2022-11-28T02:13:49.251Z,97117.28
2022-11-28T02:19:52.931Z,97111.06
2022-11-28T02:22:19.347Z,97109.50
2022-11-28T02:24:52.053Z,97112.88
2022-11-28T02:27:27.616Z,97102.09
2022-11-28T02:29:57.190Z,97102.09
2022-11-28T02:32:37.265Z,97096.25
2022-11-28T02:35:06.749Z,97099.53
2022-11-28T02:37:45.457Z,97096.06
2022-11-28T02:40:15.177Z,97094.13
2022-11-28T02:42:53.792Z,97091.41
2022-11-28T02:45:23.764Z,97089.47
2022-11-28T02:48:10.355Z,97090.03
2022-11-28T02:50:48.076Z,97079.13
2022-11-28T02:53:14.813Z,97075.84
2022-11-28T02:55:41.392Z,97075.75
2022-11-28T02:58:07.837Z,97068.78
2022-11-28T03:00:35.337Z,97064.50
2022-11-28T03:03:10.164Z,97060.13
2022-11-28T03:05:39.654Z,97057.44
2022-11-28T03:08:08.294Z,97055.53
2022-11-28T03:10:37.720Z,97048.38
2022-11-28T03:13:10.579Z,97047.09
2022-11-28T03:15:57.228Z,97041.03
2022-11-28T03:18:24.697Z,97029.16
2022-11-28T03:20:55.334Z,96807.09
2022-11-28T03:23:42.002Z,97031.06
2022-11-28T03:26:10.536Z,97026.06
2022-11-28T03:28:45.187Z,97038.50
2022-11-28T03:31:13.510Z,97039.69
2022-11-28T03:33:41.942Z,97029.22
2022-11-28T03:36:34.895Z,97031.50
2022-11-28T03:39:20.911Z,97028.84
2022-11-28T03:41:52.384Z,97044.75
2022-11-28T03:44:23.665Z,97040.19
2022-11-28T03:46:50.175Z,97033.16
2022-11-28T03:49:18.160Z,97032.69
2022-11-28T03:51:55.463Z,97025.28
2022-11-28T03:54:26.006Z,97026.28
2022-11-28T03:56:54.745Z,97029.56
2022-11-28T03:59:31.907Z,97035.78
2022-11-28T04:02:19.279Z,97036.03
2022-11-28T04:04:45.866Z,97037.78
2022-11-28T04:07:19.690Z,97030.59
2022-11-28T04:09:50.945Z,97029.84
2022-11-28T04:12:33.039Z,97034.03
2022-11-28T04:15:09.943Z,97028.75
2022-11-28T04:17:38.127Z,97035.59
2022-11-28T04:20:15.311Z,97027.94
2022-11-28T04:22:46.545Z,97031.22
2022-11-28T04:25:13.935Z,97031.13
2022-11-28T04:28:00.647Z,97029.22
2022-11-28T04:30:27.084Z,97030.50
2022-11-28T04:32:55.662Z,97032.13
2022-11-28T04:35:24.413Z,97019.88
2022-11-28T04:37:50.868Z,97027.13
2022-11-28T04:40:17.588Z,97021.53
2022-11-28T04:42:54.179Z,97027.47
2022-11-28T04:45:20.636Z,97026.56
2022-11-28T04:47:47.292Z,97024.72
2022-11-28T04:50:14.085Z,97022.81
2022-11-28T04:52:44.830Z,97026.19
2022-11-28T04:55:20.695Z,97023.53
2022-11-28T04:57:52.862Z,97023.53
2022-11-28T05:00:22.346Z,97021.53
2022-11-28T05:02:50.070Z,97018.03
2022-11-28T05:05:26.255Z,97025.56
2022-11-28T05:07:52.975Z,97027.19
2022-11-28T05:10:19.642Z,97032.97
2022-11-28T05:12:46.171Z,97035.63
2022-11-28T05:15:12.644Z,97042.44
2022-11-28T05:17:42.258Z,97042.44
2022-11-28T05:20:09.284Z,97039.91
2022-11-28T05:22:35.748Z,97043.22
2022-11-28T05:25:02.175Z,97046.38
2022-11-28T05:27:29.010Z,97053.19
2022-11-28T05:29:55.608Z,97046.09
2022-11-28T05:32:22.027Z,97045.13
2022-11-28T05:34:48.530Z,97042.63
2022-11-28T05:37:14.917Z,97042.00
2022-11-28T05:39:41.673Z,97037.88
2022-11-28T05:42:08.344Z,97045.66
2022-11-28T05:44:34.784Z,97043.22
2022-11-28T05:47:01.174Z,97040.81
2022-11-28T05:49:28.948Z,97035.25
2022-11-28T05:51:55.550Z,97030.84
2022-11-28T05:54:21.969Z,97031.03
2022-11-28T05:56:48.458Z,97027.75
2022-11-28T05:59:14.871Z,97027.63
2022-11-28T06:01:41.346Z,97024.16
2022-11-28T06:04:07.865Z,97019.69
2022-11-28T06:06:34.643Z,97020.50
2022-11-28T06:09:01.214Z,97022.97
2022-11-28T06:11:28.449Z,97025.53
2022-11-28T06:13:54.864Z,97022.69
2022-11-28T06:16:22.206Z,97024.25
2022-11-28T06:18:48.845Z,97022.22
2022-11-28T06:21:15.862Z,97026.44
2022-11-28T06:23:42.330Z,97033.09
2022-11-28T06:26:09.661Z,97032.81
2022-11-28T06:28:36.143Z,97027.50
2022-11-28T06:31:02.624Z,97024.03
2022-11-28T06:33:29.038Z,97019.53
2022-11-28T06:35:59.499Z,97028.78
2022-11-28T06:38:25.914Z,97020.97
2022-11-28T06:40:55.688Z,97013.28
2022-11-28T06:43:22.245Z,97021.63
2022-11-28T06:45:48.685Z,97019.06
2022-11-28T06:48:15.174Z,97013.00
2022-11-28T06:50:41.586Z,96997.44
2022-11-28T06:53:07.986Z,97004.94
2022-11-28T06:55:40.665Z,97003.09
2022-11-28T06:58:07.090Z,97002.16
2022-11-28T07:00:33.484Z,97009.78
2022-11-28T07:02:59.907Z,97005.75
2022-11-28T07:05:27.894Z,97005.75
2022-11-28T07:07:54.809Z,97002.97
2022-11-28T07:10:21.840Z,97009.84
2022-11-28T07:12:52.852Z,97002.97
2022-11-28T07:15:19.266Z,96999.53
2022-11-28T07:17:45.690Z,97001.78
2022-11-28T07:20:12.509Z,97000.13
2022-11-28T07:22:38.922Z,97002.59
2022-11-28T07:25:05.615Z,96998.38
2022-11-28T07:27:32.239Z,96997.38
2022-11-28T07:29:58.741Z,97009.88
2022-11-28T07:32:25.431Z,96999.47
2022-11-28T07:34:51.849Z,97004.28
2022-11-28T07:37:18.512Z,97004.28
2022-11-28T07:39:45.158Z,97006.84
2022-11-28T07:42:12.164Z,97004.00
2022-11-28T07:44:38.752Z,97002.03
2022-11-28T07:47:05.288Z,97002.69
2022-11-28T07:49:32.325Z,96993.25
2022-11-28T07:51:58.788Z,96999.09
2022-11-28T07:54:25.379Z,96999.44
2022-11-28T07:59:38.270Z,96995.19
2022-11-28T08:02:04.983Z,97002.00
2022-11-28T08:04:31.576Z,96996.75
2022-11-28T08:06:58.227Z,96999.31
2022-11-28T08:09:24.871Z,96981.06
2022-11-28T08:11:52.526Z,96980.97
2022-11-28T08:14:19.150Z,96972.97
2022-11-28T08:16:46.379Z,96966.50
2022-11-28T08:19:12.910Z,96973.97
2022-11-28T08:21:39.423Z,96987.63
2022-11-28T08:24:06.180Z,96982.41
2022-11-28T08:26:32.672Z,96975.44
2022-11-28T08:28:59.456Z,96983.66
2022-11-28T08:31:26.825Z,96983.75
2022-11-28T08:33:53.900Z,96983.44
2022-11-28T08:36:20.421Z,96983.75
2022-11-28T08:39:02.976Z,96983.88
2022-11-28T08:41:33.724Z,96988.78
2022-11-28T08:44:00.312Z,96982.19
2022-11-28T08:46:26.773Z,96988.19
2022-11-28T08:48:53.207Z,96986.63
2022-11-28T08:51:21.264Z,96975.41
2022-11-28T08:53:49.467Z,96988.88
2022-11-28T08:56:16.036Z,96981.78
2022-11-28T08:58:42.551Z,96979.31
2022-11-28T09:01:19.826Z,96968.25
2022-11-28T09:03:47.222Z,96968.34
2022-11-28T09:06:14.069Z,96964.25
2022-11-28T09:08:40.527Z,96961.47
2022-11-28T09:11:08.237Z,96956.72
2022-11-28T09:13:34.708Z,96957.34
2022-11-28T09:16:01.226Z,96947.88
2022-11-28T09:18:27.638Z,96940.38
2022-11-28T09:20:57.922Z,96938.28
2022-11-28T09:23:24.340Z,96937.59
2022-11-28T09:25:50.788Z,96936.34
2022-11-28T09:28:17.292Z,96937.06
2022-11-28T09:30:43.758Z,96933.16
2022-11-28T09:33:11.638Z,96929.75
2022-11-28T09:35:38.714Z,96936.41
2022-11-28T09:38:05.160Z,96936.41
2022-11-28T09:40:34.126Z,96928.59
2022-11-28T09:43:04.625Z,96928.50
2022-11-28T09:45:33.216Z,96921.94
2022-11-28T09:48:02.130Z,96924.28
2022-11-28T09:50:30.842Z,96915.31
2022-11-28T09:53:09.573Z,96925.28
2022-11-28T09:55:36.059Z,96910.69
2022-11-28T09:58:05.758Z,96915.22
2022-11-28T10:00:33.853Z,96918.72
2022-11-28T10:03:06.395Z,96904.97
2022-11-28T10:05:33.027Z,96904.84
2022-11-28T10:08:05.522Z,96900.97
2022-11-28T10:10:38.050Z,96887.06
2022-11-28T10:13:11.393Z,96893.00
2022-11-28T10:15:37.823Z,96897.84
2022-11-28T10:18:07.134Z,96896.53
2022-11-28T10:20:38.146Z,96879.97
2022-11-28T10:23:13.759Z,96888.69
2022-11-28T10:25:46.031Z,96885.53
2022-11-28T10:28:21.249Z,96890.88
2022-11-28T10:30:49.389Z,96887.72
2022-11-28T10:33:24.452Z,96887.81
2022-11-28T10:35:52.464Z,96889.56
2022-11-28T10:38:25.620Z,96886.41
2022-11-28T10:41:05.058Z,96886.09
2022-11-28T10:43:31.572Z,96872.00
2022-11-28T10:46:16.996Z,96877.94
2022-11-28T10:48:46.542Z,96878.84
2022-11-28T10:51:12.943Z,96857.84
2022-11-28T10:53:45.571Z,96864.50
2022-11-28T10:56:18.228Z,96872.31
2022-11-28T10:58:47.730Z,96868.13
2022-11-28T11:01:14.270Z,96869.03
2022-11-28T11:03:40.699Z,96868.31
2022-11-28T11:06:07.660Z,96866.94
2022-11-28T11:08:35.372Z,96869.50
2022-11-28T11:11:17.700Z,96871.06
2022-11-28T11:13:59.823Z,96863.44
2022-11-28T11:16:58.317Z,96860.88
2022-11-28T11:19:31.812Z,96854.22
2022-11-28T11:22:10.434Z,96857.50
2022-11-28T11:24:37.219Z,96850.72
2022-11-28T11:27:20.045Z,96852.34
2022-11-28T11:29:50.276Z,96842.44
2022-11-28T11:32:28.315Z,96864.63
2022-11-28T11:34:54.811Z,96847.56
2022-11-28T11:37:30.888Z,96849.78
2022-11-28T11:39:57.299Z,96842.88
2022-11-28T11:42:26.032Z,96846.31
2022-11-28T11:44:54.671Z,96846.19
2022-11-28T11:47:39.168Z,96845.25
2022-11-28T11:50:06.068Z,96841.88
2022-11-28T11:52:32.640Z,96844.13
2022-11-28T11:55:03.319Z,96836.16
2022-11-28T11:57:34.429Z,96838.03
2022-11-28T12:00:11.363Z,96821.09
2022-11-28T12:02:38.489Z,96834.03
2022-11-28T12:05:15.955Z,96822.13
2022-11-28T12:07:42.538Z,96823.78
2022-11-28T12:10:11.152Z,96813.97
2022-11-28T12:12:37.720Z,96807.34
2022-11-28T12:15:04.471Z,96810.72
2022-11-28T12:17:54.459Z,96806.16
2022-11-28T12:20:36.131Z,96811.75
2022-11-28T12:23:02.595Z,96793.06
2022-11-28T12:25:33.930Z,96794.09
2022-11-28T12:28:15.573Z,96802.72
2022-11-28T12:31:05.545Z,96796.19
2022-11-28T12:33:32.044Z,96805.16
2022-11-28T12:36:05.217Z,96798.59
2022-11-28T12:38:37.731Z,96800.09
2022-11-28T12:41:27.630Z,96803.03
2022-11-28T12:44:17.883Z,96793.66
2022-11-28T12:46:47.585Z,96798.41
2022-11-28T12:49:17.606Z,96788.88
2022-11-28T12:51:47.715Z,96798.22
2022-11-28T12:54:26.540Z,96782.00
2022-11-28T12:56:59.293Z,96788.28
2022-11-28T12:59:37.329Z,96783.00
2022-11-28T13:02:10.295Z,96794.22
2022-11-28T13:04:58.944Z,96788.38
2022-11-28T13:07:25.425Z,96783.94
2022-11-28T13:10:04.185Z,96785.00
2022-11-28T13:12:33.793Z,96778.56
2022-11-28T13:15:00.966Z,96773.84
2022-11-28T13:17:38.049Z,96765.66
2022-11-28T13:20:16.933Z,96765.88
2022-11-28T13:22:46.507Z,96761.41
2022-11-28T13:25:19.202Z,96756.69
2022-11-28T13:28:04.447Z,96761.91
2022-11-28T13:30:32.534Z,96756.09
2022-11-28T13:33:01.653Z,96757.66
2022-11-28T13:35:28.164Z,96761.56
2022-11-28T13:41:01.346Z,96766.09
2022-11-28T13:43:46.999Z,96766.19
2022-11-28T13:46:13.549Z,96760.69
2022-11-28T13:49:12.659Z,96759.97
2022-11-28T13:51:31.706Z,96760.06
2022-11-28T13:54:17.007Z,96766.03
2022-11-28T13:56:43.674Z,96766.13
2022-11-28T13:59:36.678Z,96765.53
2022-11-28T14:02:15.767Z,96758.53
2022-11-28T14:04:43.261Z,96765.72
2022-11-28T14:07:16.228Z,96765.03
2022-11-28T14:09:44.676Z,96760.91
2022-11-28T14:12:34.518Z,96766.84
2022-11-28T14:15:07.368Z,96763.19
2022-11-28T14:17:52.419Z,96760.34
2022-11-28T14:20:18.807Z,96763.91
2022-11-28T14:22:58.639Z,96772.00
2022-11-28T14:25:31.733Z,96768.00
2022-11-28T14:28:02.159Z,96765.03
2022-11-28T14:30:28.555Z,96771.31
2022-11-28T14:32:56.046Z,96763.72
2022-11-28T14:35:41.347Z,96766.59
2022-11-28T14:38:27.692Z,96769.25
2022-11-28T14:40:57.288Z,96761.78
2022-11-28T14:43:24.053Z,96764.53
2022-11-28T14:45:50.987Z,96770.06
2022-11-28T14:48:18.659Z,96771.09
2022-11-28T14:50:45.115Z,96776.63
2022-11-28T14:53:31.770Z,96773.63
2022-11-28T14:56:09.094Z,96779.88
2022-11-28T14:58:35.935Z,96775.69
2022-11-28T15:01:03.327Z,96780.88
2022-11-28T15:03:48.616Z,96775.16
2022-11-28T15:06:21.984Z,96775.72
2022-11-28T15:09:17.998Z,96783.00
2022-11-28T15:11:44.423Z,96788.41
2022-11-28T15:14:15.601Z,96790.63
2022-11-28T15:16:49.601Z,96794.69
2022-11-28T15:19:19.879Z,96784.22
2022-11-28T15:21:46.857Z,96794.84
2022-11-28T15:24:22.296Z,96795.13
2022-11-28T15:26:52.958Z,96790.94
2022-11-28T15:29:26.728Z,96797.78
2022-11-28T15:31:54.917Z,96801.34
2022-11-28T15:34:39.417Z,96798.06
2022-11-28T15:37:07.126Z,96794.06
2022-11-28T15:39:39.683Z,96805.19
2022-11-28T15:42:08.214Z,96793.78
2022-11-28T15:44:36.329Z,96791.22
2022-11-28T15:47:02.785Z,96793.56
2022-11-28T15:49:33.156Z,96792.03
2022-11-28T15:52:00.561Z,96798.44
2022-11-28T15:54:36.394Z,96807.22
2022-11-28T15:57:03.087Z,96807.75
2022-11-28T15:59:48.979Z,96811.72
2022-11-28T16:02:16.741Z,96823.84
2022-11-28T16:04:43.546Z,96814.00
2022-11-28T16:07:12.131Z,96809.25
2022-11-28T16:09:52.869Z,96810.72
2022-11-28T16:12:19.275Z,96813.38
2022-11-28T16:14:46.019Z,96807.44
2022-11-28T16:17:29.069Z,96811.66
2022-11-28T16:19:55.495Z,96810.34
2022-11-28T16:22:22.315Z,96813.28
2022-11-28T16:24:52.828Z,96814.31
2022-11-28T16:27:38.416Z,96812.72
2022-11-28T16:30:23.580Z,96824.97
2022-11-28T16:32:50.474Z,96822.06
2022-11-28T16:35:29.181Z,96817.31
2022-11-28T16:38:15.212Z,96817.22
2022-11-28T16:40:41.891Z,96819.38
2022-11-28T16:43:18.114Z,96823.19
2022-11-28T16:45:44.568Z,96817.38
2022-11-28T16:48:14.868Z,96813.91
2022-11-28T16:50:47.369Z,96818.09
2022-11-28T16:53:33.736Z,96815.53
2022-11-28T16:56:00.360Z,96815.53
2022-11-28T16:58:26.770Z,96811.63
2022-11-28T17:01:00.418Z,96807.25
2022-11-28T17:03:59.699Z,96807.16
2022-11-28T17:06:28.836Z,96803.63
2022-11-28T17:08:55.754Z,96809.25
2022-11-28T17:11:23.133Z,96809.25
2022-11-28T17:13:49.569Z,96807.72
2022-11-28T17:16:17.244Z,96804.16
2022-11-28T17:18:44.046Z,96810.06
2022-11-28T17:21:11.079Z,96804.16
2022-11-28T17:23:37.740Z,96810.00
2022-11-28T17:26:04.338Z,96808.38
2022-11-28T17:28:30.783Z,96814.47
2022-11-28T17:30:57.394Z,96810.25
2022-11-28T17:33:23.865Z,96807.41
2022-11-28T17:35:51.153Z,96806.16
2022-11-28T17:38:17.781Z,96808.13
2022-11-28T17:40:44.875Z,96809.31
2022-11-28T17:43:14.967Z,96803.38
2022-11-28T17:45:41.398Z,96803.38
2022-11-28T17:48:08.317Z,96801.75
2022-11-28T17:50:34.774Z,96813.44
2022-11-28T17:53:01.192Z,96808.41
2022-11-28T17:55:27.790Z,96809.41
2022-11-28T17:57:54.528Z,96807.69
2022-11-28T18:00:21.067Z,96817.06
2022-11-28T18:02:47.514Z,96812.88
2022-11-28T18:05:13.995Z,96813.84
2022-11-28T18:07:40.457Z,96818.34
2022-11-28T18:10:07.992Z,96822.63
2022-11-28T18:12:38.252Z,96818.97
2022-11-28T18:15:04.882Z,96822.91
2022-11-28T18:17:31.287Z,96815.06
2022-11-28T18:19:58.122Z,96823.28
2022-11-28T18:22:24.813Z,96820.47
2022-11-28T18:24:51.584Z,96822.75
2022-11-28T18:27:18.071Z,96820.59
2022-11-28T18:29:44.753Z,96830.44
2022-11-28T18:32:11.809Z,96820.94
2022-11-28T18:34:38.535Z,96824.06
2022-11-28T18:37:05.384Z,96831.72
2022-11-28T18:39:33.133Z,96831.00
2022-11-28T18:42:00.155Z,96820.41
2022-11-28T18:44:26.862Z,96831.47
2022-11-28T18:46:53.314Z,96831.25
2022-11-28T18:49:20.423Z,96826.97
2022-11-28T18:51:46.989Z,96829.44
2022-11-28T18:54:19.222Z,96826.91
2022-11-28T18:56:47.200Z,96826.69
2022-11-28T18:59:13.642Z,96829.97
2022-11-28T19:01:40.149Z,96829.09
2022-11-28T19:04:07.595Z,96825.63
2022-11-28T19:06:34.572Z,96824.78
2022-11-28T19:09:01.210Z,96831.44
2022-11-28T19:11:28.769Z,96823.78
2022-11-28T19:13:55.250Z,96828.28
2022-11-28T19:16:22.548Z,96819.75
2022-11-28T19:18:49.188Z,96816.94
2022-11-28T19:21:19.495Z,96813.66
2022-11-28T19:23:47.227Z,96823.31
2022-11-28T19:26:14.180Z,96816.69
2022-11-28T19:28:40.890Z,96821.03
2022-11-28T19:31:08.144Z,96824.50
2022-11-28T19:33:34.862Z,96814.56
2022-11-28T19:36:02.389Z,96816.13
2022-11-28T19:38:28.992Z,96815.00
2022-11-28T19:40:55.424Z,96817.28
2022-11-28T19:43:21.904Z,96819.69
2022-11-28T19:45:55.480Z,96820.13
2022-11-28T19:48:22.054Z,96820.75
2022-11-28T19:50:51.627Z,96823.84
2022-11-28T19:53:18.401Z,96825.16
2022-11-28T19:55:46.971Z,96823.22
2022-11-28T19:58:13.410Z,96827.50
2022-11-28T20:00:39.957Z,96827.41
2022-11-28T20:03:06.702Z,96832.34
2022-11-28T20:05:33.551Z,96825.59
2022-11-28T20:08:00.092Z,96826.31
2022-11-28T20:10:26.983Z,96826.16
2022-11-28T20:12:54.308Z,96826.22
2022-11-28T20:15:21.202Z,96826.97
2022-11-28T20:17:47.692Z,96830.78
2022-11-28T20:20:14.152Z,96831.31
2022-11-28T20:22:40.611Z,96831.88
2022-11-28T20:25:07.431Z,96836.78
2022-11-28T20:27:34.156Z,96833.31
2022-11-28T20:30:03.632Z,96834.94
2022-11-28T20:32:30.072Z,96827.91
2022-11-28T20:34:56.764Z,96833.72
2022-11-28T20:37:23.269Z,96829.66
2022-11-28T20:39:49.770Z,96831.94
2022-11-28T20:42:16.189Z,96837.03
2022-11-28T20:44:42.614Z,96833.47
2022-11-28T20:47:11.099Z,96827.97
2022-11-28T20:49:41.682Z,96837.75
2022-11-28T20:52:08.449Z,96836.84
2022-11-28T20:54:34.960Z,96835.84
2022-11-28T20:59:47.894Z,96839.16
2022-11-28T21:02:14.444Z,96832.41
2022-11-28T21:04:44.077Z,96835.25
2022-11-28T21:07:10.592Z,96832.78
2022-11-28T21:09:37.032Z,96832.63
2022-11-28T21:12:03.573Z,96832.22
2022-11-28T21:14:30.128Z,96833.22
2022-11-28T21:16:56.893Z,96841.66
2022-11-28T21:19:23.405Z,96832.22
2022-11-28T21:21:49.841Z,96831.41
2022-11-28T21:24:16.336Z,96834.41
2022-11-28T21:26:46.599Z,96832.66
2022-11-28T21:29:17.734Z,96832.66
2022-11-28T21:31:44.320Z,96838.59
2022-11-28T21:34:13.013Z,96843.81
2022-11-28T21:36:39.458Z,96837.03
2022-11-28T21:39:06.416Z,96831.84
2022-11-28T21:41:32.851Z,96830.72
2022-11-28T21:43:59.604Z,96826.34
2022-11-28T21:46:26.457Z,96823.03
2022-11-28T21:48:53.581Z,96826.41
2022-11-28T21:51:20.913Z,96822.84
2022-11-28T21:53:47.574Z,96822.22
2022-11-28T21:56:14.690Z,96819.66
2022-11-28T21:58:41.393Z,96818.00
2022-11-28T22:01:09.046Z,96824.16
2022-11-28T22:03:35.561Z,96825.69
2022-11-28T22:06:05.914Z,96821.50
2022-11-28T22:08:32.334Z,96819.75
2022-11-28T22:11:04.266Z,96808.47
2022-11-28T22:13:31.149Z,96811.69
2022-11-28T22:15:57.795Z,96817.84
2022-11-28T22:18:24.248Z,96814.25
2022-11-28T22:20:53.196Z,96821.53
2022-11-28T22:23:19.793Z,96815.47
2022-11-28T22:25:52.582Z,96814.09
2022-11-28T22:28:19.179Z,96812.63
2022-11-28T22:30:45.648Z,96812.09
2022-11-28T22:33:12.145Z,96815.19
2022-11-28T22:35:38.534Z,96811.19
2022-11-28T22:38:04.990Z,96808.94
2022-11-28T22:40:31.601Z,96812.09
2022-11-28T22:42:58.216Z,96821.44
2022-11-28T22:45:24.650Z,96813.75
2022-11-28T22:47:51.108Z,96813.66
2022-11-28T22:50:17.605Z,96813.03
2022-11-28T22:52:44.280Z,96816.41
2022-11-28T22:55:10.808Z,96818.97
2022-11-28T22:57:37.643Z,96809.75
2022-11-28T23:00:05.002Z,96812.09
2022-11-28T23:02:31.556Z,96805.16
2022-11-28T23:04:58.375Z,96807.34
2022-11-28T23:07:24.862Z,96806.41
2022-11-28T23:09:52.469Z,96809.56
2022-11-28T23:12:19.192Z,96804.56
2022-11-28T23:14:46.044Z,96806.47
2022-11-28T23:17:12.789Z,96797.16
2022-11-28T23:19:40.155Z,96798.91
2022-11-28T23:22:06.653Z,96792.03
2022-11-28T23:24:33.136Z,96789.59
2022-11-28T23:26:59.531Z,96790.50
2022-11-28T23:29:26.111Z,96794.53
2022-11-28T23:31:52.593Z,96791.66
2022-11-28T23:34:19.079Z,96784.88
2022-11-28T23:36:46.129Z,96786.75
2022-11-28T23:39:13.621Z,96804.38
2022-11-28T23:41:40.030Z,96793.31
2022-11-28T23:44:06.537Z,96791.66
2022-11-28T23:46:33.406Z,96792.78
2022-11-28T23:48:59.798Z,96793.50
2022-11-28T23:51:26.409Z,96786.63
2022-11-28T23:53:54.056Z,96782.31
2022-11-28T23:56:21.490Z,96790.53
2022-11-28T23:58:48.133Z,96793.31
